Terminal Aerodrome Forecast
Issued by NWS

Home | Current Version | Previous Version | Graphics & Text | Print | Product List | Glossary On
Versions: 1 2 3 4 5 6 7 8 9 10 11 12 13 14 15 16 17 18 19 20
000
FTUS43 KLSX 161139
TAFSUS
TAF
KSUS 161139Z 1612/1712 34015G21KT P6SM OVC020
      TEMPO 1612/1614 OVC015
     FM161800 35010KT P6SM SCT080
     FM162300 36005KT P6SM SCT250
     FM170800 12004KT P6SM SCT250=

USA.gov is the U.S. government's official web portal to all federal, state and local government web resources and services.